Flight Track Log - Related Links

Times and Time Zones

All times are in EST time to prevent confusion due to time zone crossing. See the ACA7033 flight status page for this flight to view local times or setup timezone preferences in your user account.

Time Position Orientation Groundspeed Altitude Reporting Facility
EST Latitude Longitude Course Direction KTS MPH feet Rate Location/Type
Fri 10:48:01 PM 35.8561 -78.8108 195° South 157 181 1,300  Level Washington Center
Fri 10:48:49 PM 35.8225 -78.8222 195° South 178 205 3,300 2,807 Climbing Washington Center
Fri 10:49:50 PM 35.7542 -78.8042 168° South 265 305 6,400 2,917 Climbing Washington Center
Fri 10:50:38 PM 35.7108 -78.7869 162° South 275 316 8,600 2,860 Climbing Washington Center
Fri 10:51:37 PM 35.6322 -78.7558 162° South 286 329 11,500 3,200 Climbing Washington Center
Fri 10:52:38 PM 35.5333 -78.7136 161° South 325 374 15,000 3,100 Climbing Washington Center
Fri 10:53:37 PM 35.4458 -78.7000 173° South 349 402 17,700 2,700 Climbing Washington Center
Fri 10:54:38 PM 35.3358 -78.6856 174° South 359 413 20,400 2,430 Climbing Washington Center
Fri 10:55:38 PM 35.2297 -78.6689 173° South 372 428 22,600 2,182 Climbing Washington Center
Fri 10:56:39 PM 35.1239 -78.6519 173° South 385 443 24,800 2,281 Climbing Washington Center
Fri 10:57:39 PM 35.0133 -78.6503 179° South 391 450 27,200 2,083 Climbing Washington Center
Fri 10:58:40 PM 34.9103 -78.6769 192° South 386 444 29,000 1,462 Climbing Washington Center
Fri 10:59:38 PM 34.8150 -78.7314 205° Southwest 379 436 30,100 1,246 Climbing Washington Center
Fri 11:02:07 PM 34.5764 -78.8958 210° Southwest 406 467 33,300 1,349 Climbing Jacksonville Center
Fri 11:03:07 PM 34.4806 -78.9683 212° Southwest 411 473 34,800 1,450 Climbing Jacksonville Center
Fri 11:04:07 PM 34.3844 -79.0356 210° Southwest 411 473 36,200 1,300 Climbing Jacksonville Center
Fri 11:05:07 PM 34.3014 -79.1172 219° Southwest 405 466 37,400 900 Climbing Jacksonville Center
Fri 11:06:07 PM 34.2161 -79.1961 217° Southwest 399 459 38,000 250 Climbing Jacksonville Center
Fri 11:07:07 PM 34.1331 -79.2750 218° Southwest 394 453 37,900  Descending Jacksonville Center
Fri 11:08:07 PM 34.0478 -79.3586 219° Southwest 394 453 38,000 50 Climbing Jacksonville Center
Fri 11:09:07 PM 33.9581 -79.4400 217° Southwest 388 447 38,000  Level Jacksonville Center
Fri 11:10:07 PM 33.8747 -79.5183 218° Southwest 381 438 38,000 -50 Level Jacksonville Center
Fri 11:11:07 PM 33.7872 -79.5992 218° Southwest 386 444 37,900 -50 Descending Jacksonville Center
Fri 11:12:07 PM 33.7017 -79.6822 219° Southwest 392 451 37,900  Level Jacksonville Center
Fri 11:13:07 PM 33.6181 -79.7600 218° Southwest 392 451 37,900 50 Level Jacksonville Center
Fri 11:14:07 PM 33.5367 -79.8403 219° Southwest 392 451 38,000  Climbing Jacksonville Center
Fri 11:15:07 PM 33.4489 -79.9228 218° Southwest 392 451 37,900 -50 Descending Jacksonville Center
Fri 11:16:07 PM 33.3650 -80.0003 218° Southwest 387 445 37,900 50 Level Jacksonville Center
Fri 11:17:07 PM 33.2792 -80.0825 219° Southwest 392 451 38,000 50 Climbing Jacksonville Center
Fri 11:18:07 PM 33.1911 -80.1622 217° Southwest 392 451 38,000  Level Jacksonville Center
Fri 11:19:07 PM 33.1133 -80.2339 218° Southwest 405 466 38,000  Level Jacksonville Center
Fri 11:20:07 PM 33.0253 -80.3133 217° Southwest 405 466 38,000  Level Jacksonville Center
Fri 11:21:07 PM 32.9353 -80.3953 217° Southwest 405 466 38,000  Level Jacksonville Center
Fri 11:22:07 PM 32.8492 -80.4742 218° Southwest 405 466 38,000 -50 Level Jacksonville Center
Fri 11:23:07 PM 32.7628 -80.5531 218° Southwest 399 459 37,900 -50 Descending Jacksonville Center
Fri 11:24:07 PM 32.6767 -80.6319 218° Southwest 399 459 37,900 50 Level Jacksonville Center
Fri 11:25:07 PM 32.5903 -80.7131 218° Southwest 399 459 38,000 50 Climbing Jacksonville Center
Fri 11:26:07 PM 32.5019 -80.7914 217° Southwest 399 459 38,000 -50 Level Jacksonville Center
Fri 11:27:07 PM 32.4178 -80.8722 219° Southwest 399 459 37,900  Descending Jacksonville Center
Fri 11:28:07 PM 32.3189 -80.9578 216° Southwest 405 466 38,000 50 Climbing Jacksonville Center
Fri 11:29:07 PM 32.2344 -81.0333 217° Southwest 400 460 38,000  Level Jacksonville Center
Fri 11:30:07 PM 32.1519 -81.1086 218° Southwest 406 467 38,000 -50 Level Jacksonville Center
Fri 11:31:07 PM 32.0631 -81.1864 217° Southwest 406 467 37,900  Descending Jacksonville Center
Fri 11:32:07 PM 31.9786 -81.2639 218° Southwest 406 467 38,000 50 Climbing Jacksonville Center
Fri 11:33:07 PM 31.8794 -81.3464 215° Southwest 406 467 38,000  Level Jacksonville Center
Fri 11:34:07 PM 31.7886 -81.4236 216° Southwest 405 466 38,000  Level Jacksonville Center
Fri 11:35:07 PM 31.6997 -81.5081 219° Southwest 405 466 38,000 -200 Level Jacksonville Center
Fri 11:36:07 PM 31.6128 -81.5875 218° Southwest 405 466 37,600 -900 Descending Jacksonville Center
Fri 11:37:07 PM 31.5342 -81.6567 217° Southwest 400 460 36,200 -800 Descending Jacksonville Center
Fri 11:38:07 PM 31.4472 -81.7333 217° Southwest 400 460 36,000 -100 Descending Jacksonville Center
Fri 11:39:07 PM 31.3603 -81.8100 217° Southwest 394 453 36,000 -50 Level Jacksonville Center
Fri 11:40:07 PM 31.2711 -81.8911 218° Southwest 400 460 35,900  Descending Jacksonville Center
Fri 11:41:07 PM 31.1839 -81.9650 216° Southwest 400 460 36,000 50 Climbing Jacksonville Center
Fri 11:42:07 PM 31.0989 -82.0433 218° Southwest 400 460 36,000 -50 Level Jacksonville Center
Fri 11:43:07 PM 31.0136 -82.1194 217° Southwest 400 460 35,900 -50 Descending Jacksonville Center
Fri 11:44:07 PM 30.8908 -82.1614 196° South 400 460 35,900 50 Level Jacksonville Center
Fri 11:45:07 PM 30.7781 -82.1769 187° South 405 466 36,000 50 Climbing Jacksonville Center
Fri 11:46:07 PM 30.6656 -82.1947 188° South 415 478 36,000 -50 Level Jacksonville Center
Fri 11:47:07 PM 30.5508 -82.2147 189° South 415 478 35,900 -50 Descending Jacksonville Center
Fri 11:48:07 PM 30.4381 -82.2275 186° South 415 478 35,900  Level Jacksonville Center
Fri 11:49:07 PM 30.3253 -82.2428 187° South 410 472 35,900 -200 Level Jacksonville Center
Fri 11:50:07 PM 30.2106 -82.2603 188° South 410 472 35,500 -950 Descending Jacksonville Center
Fri 11:51:07 PM 30.0958 -82.2781 188° South 410 472 34,000 -1,500 Descending Jacksonville Center
Fri 11:52:07 PM 29.9811 -82.3003 190° South 410 472 32,500 -1,500 Descending Jacksonville Center
Fri 11:53:07 PM 29.8728 -82.3153 187° South 410 472 31,000 -1,500 Descending Jacksonville Center
Fri 11:54:07 PM 29.7642 -82.3328 188° South 405 466 29,500 -1,500 Descending Jacksonville Center
Fri 11:55:07 PM 29.6619 -82.3453 186° South 391 450 28,000 -800 Descending Jacksonville Center
Fri 11:56:07 PM 29.5597 -82.3531 184° South 379 436 27,900 -650 Descending Jacksonville Center
Fri 11:57:07 PM 29.4594 -82.3392 173° South 368 423 26,700 -1,550 Descending Jacksonville Center
Fri 11:58:07 PM 29.3592 -82.3303 176° South 363 418 24,800 -1,900 Descending Jacksonville Center
Fri 11:59:07 PM 29.2672 -82.3214 175° South 357 411 22,900 -1,900 Descending Jacksonville Center
Sat 12:00:07 AM 29.1711 -82.3075 173° South 351 404 21,000 -1,850 Descending Jacksonville Center
Sat 12:01:07 AM 29.0772 -82.2961 174° South 351 404 19,200 -1,800 Descending Jacksonville Center
Sat 12:02:07 AM 28.9853 -82.2872 175° South 346 398 17,400 -1,700 Descending Jacksonville Center
Sat 12:03:07 AM 28.8933 -82.2736 173° South 346 398 15,800 -1,607 Descending Jacksonville Center
Sat 12:04:55 AM 28.7333 -82.2667 178° South 315 362 12,900 -1,536 Descending Tampa TRACON
Sat 12:05:55 AM 28.6500 -82.2500 170° South 305 351 11,500 -1,046 Descending Tampa TRACON
Sat 12:06:44 AM 28.5833 -82.2500 180° South 298 343 11,000 -863 Descending Tampa TRACON
Sat 12:08:14 AM 28.4667 -82.2500 180° South 287 330 9,500 -1,174 Descending Tampa TRACON
Sat 12:09:02 AM 28.4000 -82.2500 180° South 276 318 8,300 -1,471 Descending Tampa TRACON
Sat 12:09:56 AM 28.3333 -82.2667 192° South 273 314 7,000 -684 Descending Tampa TRACON
Sat 12:10:56 AM 28.3000 -82.3500 246° West 283 326 7,000  Level Tampa TRACON
Sat 12:11:50 AM 28.2833 -82.4167 254° West 282 325 7,000 -950 Level Tampa TRACON
Sat 12:12:56 AM 28.2500 -82.5000 246° West 266 306 5,100 -1,857 Descending Tampa TRACON
Sat 12:13:56 AM 28.1833 -82.5167 192° South 247 284 3,100 -1,250 Descending Tampa TRACON
Sat 12:14:56 AM 28.1167 -82.5167 180° South 181 208 2,600 -714 Descending Tampa TRACON
Sat 12:16:02 AM 28.0667 -82.5333 196° South 163 188 1,600 -800 Descending Tampa TRACON
Sat 12:16:56 AM 28.0333 -82.5333 180° South 132 152 1,000 -611 Descending Tampa TRACON
Sat 12:17:50 AM 28.0167 -82.5333 180° South 108 124 500 -556 Descending Tampa TRACON
Sat 12:19:00 AM 27.9755 -82.5332 172° South  Level Estimated
Sat 12:26:00 AM 27.9755 -82.5332 172° South  Level Estimated
Sat 12:27:00 AM 27.9755 -82.5332 172° South  Level Estimated

Login

Don't have an account? Register now (free) for customized features, flight alerts, and more!